Time;durP1;ratioP1;P1;durP2;ratioP2;P2;SDS_P1;SDS_P2;PMS_P1;PMS_P2;Temp;Humidity;BMP_temperature;BMP_pressure;BME280_temperature;BME280_humidity;BME280_pressure;Samples;Min_cycle;Max_cycle;Signal;HPM_P1;HPM_P2
2022/07/08 00:00:48;;;;;;;5.80;1.30;;;21.40;98.20;;;;;;4841091;29;20022;-82
2022/07/08 00:03:14;;;;;;;3.70;1.00;;;21.40;98.30;;;;;;4840307;29;20053;-82
2022/07/08 00:05:40;;;;;;;6.10;1.13;;;21.30;98.50;;;;;;4840750;29;20026;-82
2022/07/08 00:08:06;;;;;;;4.15;1.00;;;21.20;98.70;;;;;;4841024;29;20030;-82
2022/07/08 00:10:31;;;;;;;5.60;1.30;;;21.20;98.90;;;;;;4840713;29;20365;-82
2022/07/08 00:12:57;;;;;;;8.77;1.33;;;21.20;99.00;;;;;;4840551;29;20022;-82
2022/07/08 00:15:23;;;;;;;5.72;1.50;;;21.20;99.10;;;;;;4840857;29;20395;-82
2022/07/08 00:17:49;;;;;;;2.88;1.35;;;21.10;99.30;;;;;;4840331;29;20388;-82
2022/07/08 00:20:15;;;;;;;5.22;1.25;;;21.10;99.50;;;;;;4840353;29;20058;-82
2022/07/08 00:22:40;;;;;;;5.88;1.30;;;21.00;99.60;;;;;;4840503;29;20081;-82
2022/07/08 00:25:07;;;;;;;3.88;1.15;;;21.00;99.80;;;;;;4840571;29;20029;-82
2022/07/08 00:27:32;;;;;;;3.45;1.10;;;20.90;99.80;;;;;;4840382;29;20038;-82
2022/07/08 00:29:58;;;;;;;5.28;1.30;;;20.90;99.90;;;;;;4840392;29;20109;-82
2022/07/08 00:32:24;;;;;;;6.15;1.33;;;20.90;99.90;;;;;;4839996;29;20037;-82
2022/07/08 00:34:50;;;;;;;6.25;1.30;;;20.80;99.90;;;;;;4840133;29;20022;-82
2022/07/08 00:37:16;;;;;;;2.50;1.27;;;20.80;99.90;;;;;;4840370;29;20026;-82
2022/07/08 00:39:42;;;;;;;4.65;0.98;;;20.70;99.90;;;;;;4836485;29;20030;-82
2022/07/08 00:42:07;;;;;;;2.55;0.90;;;20.70;99.90;;;;;;4829771;29;20408;-82
2022/07/08 00:44:34;;;;;;;3.47;1.00;;;20.70;99.90;;;;;;4840384;29;20030;-82
2022/07/08 00:46:59;;;;;;;4.47;1.02;;;20.60;99.90;;;;;;4839919;29;20090;-82
2022/07/08 00:49:25;;;;;;;2.67;1.00;;;20.60;99.90;;;;;;4839998;29;20376;-82
2022/07/08 00:51:51;;;;;;;5.13;1.40;;;20.60;99.90;;;;;;4839694;29;20502;-82
2022/07/08 00:54:19;;;;;;;1.73;1.00;;;20.60;99.90;;;;;;4839316;29;20396;-82
2022/07/08 00:56:45;;;;;;;6.03;1.10;;;20.50;99.90;;;;;;4839963;29;20038;-82
2022/07/08 00:59:12;;;;;;;6.63;1.30;;;20.50;99.90;;;;;;4839964;29;20220;-82
2022/07/08 01:01:38;;;;;;;3.72;1.02;;;20.50;99.90;;;;;;4839976;29;20034;-82
2022/07/08 01:04:04;;;;;;;9.25;1.42;;;20.50;99.90;;;;;;4839473;29;20053;-82
2022/07/08 01:06:30;;;;;;;5.57;1.45;;;20.50;99.90;;;;;;4839817;29;20030;-81
2022/07/08 01:08:56;;;;;;;7.38;1.42;;;20.50;99.90;;;;;;4839471;29;20498;-81
2022/07/08 01:11:21;;;;;;;3.28;1.15;;;20.40;99.90;;;;;;4839457;29;20041;-82
2022/07/08 01:13:47;;;;;;;2.50;0.90;;;20.40;99.90;;;;;;4839532;29;20045;-81
2022/07/08 01:16:16;;;;;;;4.03;1.20;;;20.30;99.90;;;;;;4839517;29;20511;-81
2022/07/08 01:18:42;;;;;;;7.07;1.35;;;20.30;99.90;;;;;;4839291;29;20042;-82
2022/07/08 01:21:07;;;;;;;2.10;1.00;;;20.30;99.90;;;;;;4839742;29;20077;-81
2022/07/08 01:23:34;;;;;;;6.22;1.00;;;20.20;99.90;;;;;;4839631;29;20061;-82
2022/07/08 01:26:00;;;;;;;4.93;1.48;;;20.20;99.90;;;;;;4839354;29;20511;-81
2022/07/08 01:28:26;;;;;;;2.97;1.20;;;20.20;99.90;;;;;;4839340;29;20038;-82
2022/07/08 01:30:52;;;;;;;6.57;1.35;;;20.10;99.90;;;;;;4839170;29;20034;-82
2022/07/08 01:33:18;;;;;;;5.45;1.25;;;20.20;99.90;;;;;;4839347;29;20377;-82
2022/07/08 01:35:44;;;;;;;3.92;1.55;;;20.10;99.90;;;;;;4839301;29;20392;-81
2022/07/08 01:38:09;;;;;;;4.65;1.30;;;20.10;99.90;;;;;;4839352;29;20105;-81
2022/07/08 01:40:35;;;;;;;6.80;1.10;;;20.10;99.90;;;;;;4830694;29;20026;-81
2022/07/08 01:43:01;;;;;;;3.72;1.10;;;20.10;99.90;;;;;;4835407;29;20480;-81
2022/07/08 01:45:27;;;;;;;7.20;1.25;;;20.00;99.90;;;;;;4837880;29;20030;-82
2022/07/08 01:47:53;;;;;;;3.30;1.20;;;19.90;99.90;;;;;;4839071;29;20505;-81
2022/07/08 01:50:18;;;;;;;2.40;1.20;;;19.90;99.90;;;;;;4838967;29;20026;-82
2022/07/08 01:52:44;;;;;;;5.60;1.35;;;19.80;99.90;;;;;;4839161;29;20038;-82
2022/07/08 01:55:10;;;;;;;4.47;1.48;;;19.80;99.90;;;;;;4839131;29;20202;-81
2022/07/08 01:57:35;;;;;;;3.08;1.63;;;19.70;99.90;;;;;;4839258;29;20407;-81
2022/07/08 02:00:03;;;;;;;9.55;1.60;;;19.70;99.90;;;;;;4839574;29;20022;-82
2022/07/08 02:02:28;;;;;;;5.10;1.33;;;19.60;99.90;;;;;;4838869;29;20064;-82
2022/07/08 02:04:54;;;;;;;4.55;1.52;;;19.60;99.90;;;;;;4838969;29;20488;-81
2022/07/08 02:07:20;;;;;;;3.30;1.00;;;19.60;99.90;;;;;;4816016;29;20034;-82
2022/07/08 02:09:45;;;;;;;4.93;1.27;;;19.60;99.90;;;;;;4842648;29;20028;-81
2022/07/08 02:12:20;;;;;;;3.55;1.35;;;19.60;99.90;;;;;;4842783;29;20475;-82
2022/07/08 02:14:52;;;;;;;3.95;1.52;;;19.50;99.90;;;;;;4843087;29;20487;-81
2022/07/08 02:17:19;;;;;;;3.88;1.25;;;19.40;99.90;;;;;;4842474;29;20018;-82
2022/07/08 02:19:45;;;;;;;5.65;1.60;;;19.50;99.90;;;;;;4842658;29;20033;-81
2022/07/08 02:22:12;;;;;;;5.45;2.22;;;19.50;99.90;;;;;;4841128;29;20071;-82
2022/07/08 02:24:37;;;;;;;3.88;1.30;;;19.40;99.90;;;;;;4842450;29;20079;-81
2022/07/08 02:27:04;;;;;;;2.28;1.23;;;19.40;99.90;;;;;;4842245;29;20037;-82
2022/07/08 02:29:30;;;;;;;2.90;1.63;;;19.40;99.90;;;;;;4842475;29;20018;-81
2022/07/08 02:31:55;;;;;;;3.42;1.33;;;19.40;99.90;;;;;;4842192;29;20063;-81
2022/07/08 02:34:21;;;;;;;7.43;1.45;;;19.50;99.90;;;;;;4842462;29;20022;-81
2022/07/08 02:36:47;;;;;;;5.22;1.75;;;19.40;99.90;;;;;;4842600;29;20507;-82
2022/07/08 02:39:13;;;;;;;7.03;1.25;;;19.40;99.90;;;;;;4842021;29;20061;-82
2022/07/08 02:41:39;;;;;;;4.53;1.40;;;19.40;99.90;;;;;;4829504;29;20077;-81
2022/07/08 02:44:06;;;;;;;5.22;1.60;;;19.40;99.90;;;;;;4842133;29;20634;-82
2022/07/08 02:46:32;;;;;;;3.30;1.10;;;19.40;99.90;;;;;;4841888;29;20487;-81
2022/07/08 02:48:58;;;;;;;4.25;1.42;;;19.40;99.90;;;;;;4842143;29;20030;-81
2022/07/08 02:51:24;;;;;;;2.08;1.40;;;19.40;99.90;;;;;;4841968;29;20033;-81
2022/07/08 02:53:49;;;;;;;1.95;1.27;;;19.40;99.90;;;;;;4842034;29;20514;-81
2022/07/08 02:56:15;;;;;;;6.32;1.45;;;19.40;99.90;;;;;;4841967;29;20138;-82
2022/07/08 02:58:41;;;;;;;3.90;1.58;;;19.40;99.90;;;;;;4840435;29;20053;-81
2022/07/08 03:01:06;;;;;;;5.22;1.33;;;19.40;99.90;;;;;;4841874;29;20038;-81
2022/07/08 03:03:32;;;;;;;3.20;1.50;;;19.30;99.90;;;;;;4841114;29;21627;-81
2022/07/08 03:05:58;;;;;;;6.15;1.45;;;19.30;99.90;;;;;;4841933;29;20033;-81
2022/07/08 03:08:24;;;;;;;4.18;1.52;;;19.30;99.90;;;;;;4841647;29;20038;-81
2022/07/08 03:10:49;;;;;;;4.45;1.50;;;19.30;99.90;;;;;;4842154;29;20056;-81
2022/07/08 03:13:16;;;;;;;3.78;1.35;;;19.30;99.90;;;;;;4841903;29;20038;-81
2022/07/08 03:15:42;;;;;;;3.75;2.05;;;19.20;99.90;;;;;;4841527;29;20074;-81
2022/07/08 03:18:07;;;;;;;2.78;1.38;;;19.20;99.90;;;;;;4839606;29;20400;-81
2022/07/08 03:20:33;;;;;;;5.97;1.60;;;19.20;99.90;;;;;;4841324;29;20034;-81
2022/07/08 03:22:59;;;;;;;2.92;1.58;;;19.20;99.90;;;;;;4841456;29;20097;-81
2022/07/08 03:25:25;;;;;;;3.63;1.20;;;19.20;99.90;;;;;;4841843;29;20029;-81
2022/07/08 03:27:51;;;;;;;3.63;1.40;;;19.20;99.90;;;;;;4841462;29;20113;-81
2022/07/08 03:30:17;;;;;;;4.50;1.50;;;19.20;99.90;;;;;;4841387;29;20055;-81
2022/07/08 03:32:43;;;;;;;3.33;1.35;;;19.20;99.90;;;;;;4841025;29;20025;-81
2022/07/08 03:35:09;;;;;;;3.25;1.70;;;19.10;99.90;;;;;;4841272;29;20086;-81
2022/07/08 03:37:35;;;;;;;4.45;1.50;;;19.10;99.90;;;;;;4840932;29;20110;-81
2022/07/08 03:42:45;;;;;;;5.80;1.45;;;19.10;99.90;;;;;;4835244;29;20129;-81
2022/07/08 03:45:10;;;;;;;4.78;1.63;;;19.00;99.90;;;;;;4841325;29;20116;-81
2022/07/08 03:47:36;;;;;;;3.15;1.90;;;19.00;99.90;;;;;;4841058;29;20064;-81
2022/07/08 03:50:02;;;;;;;4.13;1.75;;;18.90;99.90;;;;;;4841003;29;20033;-81
2022/07/08 03:52:29;;;;;;;5.88;1.50;;;18.80;99.90;;;;;;4841383;29;20034;-81
2022/07/08 03:54:55;;;;;;;4.97;1.63;;;18.90;99.90;;;;;;4840656;29;20022;-81
2022/07/08 03:57:21;;;;;;;2.33;1.40;;;18.80;99.90;;;;;;4840854;29;20037;-81
2022/07/08 03:59:46;;;;;;;2.60;1.50;;;18.80;99.90;;;;;;4840959;29;20369;-81
2022/07/08 04:02:12;;;;;;;3.22;1.60;;;18.80;99.90;;;;;;4840454;29;20044;-81
2022/07/08 04:04:37;;;;;;;4.22;1.75;;;18.70;99.90;;;;;;4840577;29;20073;-81
2022/07/08 04:07:03;;;;;;;3.13;1.75;;;18.80;99.90;;;;;;4827283;29;20122;-81
2022/07/08 04:09:29;;;;;;;3.85;1.63;;;18.70;99.90;;;;;;4840752;29;20025;-81
2022/07/08 04:11:54;;;;;;;4.88;1.73;;;18.70;99.90;;;;;;4840454;29;20570;-81
2022/07/08 04:14:20;;;;;;;4.10;1.55;;;18.60;99.90;;;;;;4840411;29;20487;-81
2022/07/08 04:16:46;;;;;;;4.20;1.80;;;18.60;99.90;;;;;;4840372;29;20255;-81
2022/07/08 04:19:11;;;;;;;4.32;1.95;;;18.60;99.90;;;;;;4828272;29;20038;-80
2022/07/08 04:21:37;;;;;;;3.60;1.80;;;18.60;99.90;;;;;;4839369;29;20492;-82
2022/07/08 04:24:03;;;;;;;6.28;1.70;;;18.60;99.90;;;;;;4841908;29;20037;-79
2022/07/08 04:26:31;;;;;;;4.45;2.13;;;18.60;99.90;;;;;;4840577;29;20026;-79
2022/07/08 04:29:01;;;;;;;2.85;1.63;;;18.60;99.90;;;;;;4840144;29;20499;-92
2022/07/08 04:31:27;;;;;;;5.35;1.77;;;18.60;99.90;;;;;;4836178;29;20026;-92
2022/07/08 04:33:53;;;;;;;8.68;1.73;;;18.60;99.90;;;;;;4821702;29;20034;-92
2022/07/08 04:36:20;;;;;;;2.35;1.60;;;18.60;99.90;;;;;;4829851;29;20023;-92
2022/07/08 04:38:46;;;;;;;5.78;1.60;;;18.60;99.90;;;;;;4843067;29;20030;-91
2022/07/08 04:41:12;;;;;;;6.72;1.35;;;18.70;99.90;;;;;;4822218;29;20383;-92
2022/07/08 04:43:38;;;;;;;6.97;1.63;;;18.70;99.90;;;;;;4839902;29;20022;-92
2022/07/08 04:46:04;;;;;;;6.47;1.80;;;18.60;99.90;;;;;;4836404;29;20035;-90
2022/07/08 04:48:30;;;;;;;5.20;1.70;;;18.60;99.90;;;;;;4821480;29;20521;-90
2022/07/08 04:50:57;;;;;;;5.55;1.98;;;18.60;99.90;;;;;;4837104;29;20271;-91
2022/07/08 04:53:23;;;;;;;5.22;1.98;;;18.70;99.90;;;;;;4830769;29;20121;-91
2022/07/08 04:55:49;;;;;;;4.82;1.70;;;18.60;99.90;;;;;;4839032;29;20120;-91
2022/07/08 04:58:14;;;;;;;4.47;1.90;;;18.60;99.90;;;;;;4832938;29;20102;-91
2022/07/08 05:00:40;;;;;;;3.17;1.80;;;18.70;99.90;;;;;;4835683;29;20206;-89
2022/07/08 05:03:06;;;;;;;5.65;2.25;;;18.70;99.90;;;;;;4828661;29;20457;-90
2022/07/08 05:05:33;;;;;;;4.70;1.35;;;18.70;99.90;;;;;;4839684;29;20057;-89
2022/07/08 05:08:00;;;;;;;5.70;2.30;;;18.70;99.90;;;;;;4838369;29;20094;-89
2022/07/08 05:10:27;;;;;;;2.83;1.35;;;18.70;99.90;;;;;;4829550;29;20049;-90
2022/07/08 05:12:53;;;;;;;4.00;1.73;;;18.80;99.90;;;;;;4835552;29;20034;-89
2022/07/08 05:15:20;;;;;;;5.55;1.75;;;18.80;99.90;;;;;;4836443;29;20031;-90
2022/07/08 05:17:47;;;;;;;6.53;1.40;;;18.80;99.90;;;;;;4839690;29;20030;-90
2022/07/08 05:20:13;;;;;;;5.25;1.50;;;18.80;99.90;;;;;;4840246;29;20031;-90
2022/07/08 05:22:39;;;;;;;5.18;1.90;;;18.80;99.90;;;;;;4838242;29;20049;-90
2022/07/08 05:25:06;;;;;;;7.55;1.85;;;18.90;99.90;;;;;;4839533;29;20054;-89
2022/07/08 05:27:33;;;;;;;9.10;2.95;;;18.90;99.90;;;;;;4823497;29;20082;-90
2022/07/08 05:29:59;;;;;;;4.43;1.42;;;18.80;99.90;;;;;;4829615;29;20022;-90
2022/07/08 05:32:24;;;;;;;2.80;1.50;;;18.80;99.90;;;;;;4834158;29;20360;-91
2022/07/08 05:34:50;;;;;;;5.15;1.80;;;18.90;99.90;;;;;;4828563;29;20141;-91
2022/07/08 05:37:16;;;;;;;5.80;1.70;;;18.90;99.90;;;;;;4840431;29;20026;-88
2022/07/08 05:39:42;;;;;;;4.97;1.63;;;19.00;99.90;;;;;;4837121;29;20026;-88
2022/07/08 05:42:10;;;;;;;2.72;1.40;;;19.00;99.90;;;;;;4828957;29;20400;-88
2022/07/08 05:44:36;;;;;;;6.10;1.95;;;19.10;99.90;;;;;;4842010;29;20279;-88
2022/07/08 05:47:07;;;;;;;3.70;1.30;;;19.00;99.90;;;;;;4843667;29;20034;-89
2022/07/08 05:49:34;;;;;;;4.07;1.40;;;19.00;99.90;;;;;;4840129;29;20262;-89
2022/07/08 05:52:00;;;;;;;3.25;1.30;;;19.00;99.90;;;;;;4839196;29;20034;-88
2022/07/08 05:54:26;;;;;;;9.82;1.70;;;19.10;99.90;;;;;;4843257;29;20039;-89
2022/07/08 05:56:52;;;;;;;5.22;1.70;;;19.10;99.90;;;;;;4841059;29;20026;-90
2022/07/08 05:59:18;;;;;;;2.47;1.50;;;19.10;99.90;;;;;;4839582;29;20109;-92
2022/07/08 06:01:44;;;;;;;7.60;2.38;;;19.10;99.90;;;;;;4839077;29;20121;-90
2022/07/08 06:04:09;;;;;;;5.05;1.33;;;19.20;99.90;;;;;;4839834;29;20086;-89
2022/07/08 06:06:35;;;;;;;2.60;1.30;;;19.20;99.90;;;;;;4841154;29;20170;-89
2022/07/08 06:09:01;;;;;;;6.20;1.58;;;19.30;99.90;;;;;;4840283;29;20033;-88
2022/07/08 06:11:26;;;;;;;4.93;1.42;;;19.40;99.90;;;;;;4840270;29;20034;-90
2022/07/08 06:13:53;;;;;;;2.58;1.65;;;19.30;99.90;;;;;;4837953;29;20034;-90
2022/07/08 06:16:19;;;;;;;4.80;1.10;;;19.30;99.90;;;;;;4837990;29;20033;-88
2022/07/08 06:18:45;;;;;;;2.80;1.30;;;19.40;99.90;;;;;;4830304;29;20042;-91
2022/07/08 06:21:10;;;;;;;4.43;1.90;;;19.50;99.90;;;;;;4810786;29;20026;-89
2022/07/08 06:23:36;;;;;;;5.60;1.23;;;19.50;99.90;;;;;;4827736;29;20401;-88
2022/07/08 06:26:03;;;;;;;4.10;1.15;;;19.50;99.90;;;;;;4821260;29;20029;-88
2022/07/08 06:28:28;;;;;;;7.00;1.45;;;19.60;99.90;;;;;;4825989;29;20038;-89
2022/07/08 06:30:54;;;;;;;4.47;1.30;;;19.70;99.90;;;;;;4826993;29;20515;-89
2022/07/08 06:33:20;;;;;;;4.63;1.13;;;19.70;99.90;;;;;;4833573;29;20626;-89
2022/07/08 06:35:45;;;;;;;3.38;1.20;;;19.80;99.90;;;;;;4837148;29;20479;-79
2022/07/08 06:38:11;;;;;;;12.18;2.10;;;19.80;99.90;;;;;;4838489;29;20398;-78
2022/07/08 06:40:37;;;;;;;4.13;1.63;;;19.90;99.90;;;;;;4826040;29;20625;-78
2022/07/08 06:43:02;;;;;;;3.90;1.40;;;19.90;99.90;;;;;;4834282;29;20419;-78
2022/07/08 06:45:31;;;;;;;4.82;1.42;;;20.00;99.90;;;;;;4838528;29;20026;-78
2022/07/08 06:47:58;;;;;;;6.05;1.40;;;20.10;99.90;;;;;;4838192;29;20507;-78
2022/07/08 06:50:24;;;;;;;3.60;1.20;;;20.20;99.90;;;;;;4838565;29;20026;-78
2022/07/08 06:52:50;;;;;;;4.40;1.23;;;20.20;99.90;;;;;;4839926;29;20034;-78
2022/07/08 06:55:16;;;;;;;7.78;1.10;;;20.20;99.90;;;;;;4837796;29;20568;-78
2022/07/08 06:57:41;;;;;;;4.20;1.27;;;20.20;99.90;;;;;;4828891;29;20149;-78
2022/07/08 07:00:07;;;;;;;4.55;1.30;;;20.20;99.90;;;;;;4841385;29;20388;-78
2022/07/08 07:02:33;;;;;;;2.88;1.20;;;20.30;99.90;;;;;;4840063;29;20542;-78
2022/07/08 07:05:00;;;;;;;4.88;1.30;;;20.30;99.90;;;;;;4823316;29;20050;-78
2022/07/08 07:07:27;;;;;;;7.38;1.25;;;20.40;99.90;;;;;;4837124;29;20057;-78
2022/07/08 07:09:53;;;;;;;4.75;1.30;;;20.50;99.90;;;;;;4841383;29;20025;-78
2022/07/08 07:12:19;;;;;;;8.98;1.40;;;20.50;99.90;;;;;;4841046;29;20465;-78
2022/07/08 07:14:45;;;;;;;4.35;1.27;;;20.60;99.90;;;;;;4841424;29;20030;-78
2022/07/08 07:17:10;;;;;;;3.40;1.00;;;20.60;99.90;;;;;;4841247;29;20034;-78
2022/07/08 07:19:36;;;;;;;3.85;1.30;;;20.70;99.90;;;;;;4841166;29;20086;-78
2022/07/08 07:22:02;;;;;;;4.20;1.00;;;20.80;99.90;;;;;;4841079;29;20048;-78
2022/07/08 07:24:28;;;;;;;4.43;1.00;;;20.90;99.90;;;;;;4841467;29;20515;-78
2022/07/08 07:26:54;;;;;;;5.25;1.40;;;21.00;99.90;;;;;;4839562;29;20192;-78
2022/07/08 07:29:20;;;;;;;3.85;1.27;;;21.10;99.90;;;;;;4834998;29;20216;-78
2022/07/08 07:31:45;;;;;;;5.22;1.50;;;21.10;99.70;;;;;;4840587;29;20571;-78
2022/07/08 07:34:11;;;;;;;4.93;1.30;;;21.10;99.80;;;;;;4841038;29;20090;-78
2022/07/08 07:36:37;;;;;;;5.63;1.30;;;21.20;99.60;;;;;;4840706;29;20026;-78
2022/07/08 07:39:03;;;;;;;7.20;1.40;;;21.20;99.30;;;;;;4840856;29;20419;-78
2022/07/08 07:41:29;;;;;;;4.40;1.30;;;21.20;99.70;;;;;;4827789;29;20055;-78
2022/07/08 07:43:54;;;;;;;5.35;1.30;;;21.30;99.50;;;;;;4841033;29;20151;-78
2022/07/08 07:46:20;;;;;;;6.75;1.70;;;21.30;99.60;;;;;;4840615;29;20041;-78
2022/07/08 07:48:46;;;;;;;5.03;1.27;;;21.30;99.60;;;;;;4840874;29;20172;-78
2022/07/08 07:51:12;;;;;;;4.15;1.27;;;21.40;98.80;;;;;;4840359;29;20056;-78
2022/07/08 07:53:37;;;;;;;6.00;1.30;;;21.40;99.40;;;;;;4840413;29;20395;-78
2022/07/08 07:56:03;;;;;;;4.68;1.20;;;21.40;98.80;;;;;;4819335;29;20050;-77
2022/07/08 07:58:29;;;;;;;2.55;1.00;;;21.40;98.90;;;;;;4815125;29;20102;-77
2022/07/08 08:00:54;;;;;;;7.32;1.63;;;21.50;98.50;;;;;;4821856;29;20095;-77
2022/07/08 08:03:20;;;;;;;6.65;1.20;;;21.60;98.70;;;;;;4822215;29;20483;-77
2022/07/08 08:05:46;;;;;;;4.15;1.30;;;21.70;98.40;;;;;;4831346;29;20042;-77
2022/07/08 08:08:12;;;;;;;4.90;1.20;;;21.70;98.40;;;;;;4825834;29;20030;-77
2022/07/08 08:10:38;;;;;;;3.75;1.38;;;21.90;97.90;;;;;;4824945;29;20094;-77
2022/07/08 08:13:04;;;;;;;5.35;2.00;;;21.90;97.80;;;;;;4819258;29;20267;-77
2022/07/08 08:15:31;;;;;;;5.93;1.63;;;22.00;97.90;;;;;;4821902;29;20031;-77
2022/07/08 08:17:57;;;;;;;3.65;1.30;;;22.10;97.80;;;;;;4824572;29;20103;-77
2022/07/08 08:20:28;;;;;;;4.88;1.40;;;22.20;97.30;;;;;;4831654;29;20457;-77
2022/07/08 08:22:56;;;;;;;4.60;1.00;;;22.20;97.10;;;;;;4824758;29;20060;-77
2022/07/08 08:25:22;;;;;;;6.80;1.15;;;22.30;96.50;;;;;;4822005;29;20027;-77
2022/07/08 08:27:48;;;;;;;3.75;1.08;;;22.30;96.30;;;;;;4827800;29;20051;-77
2022/07/08 08:30:15;;;;;;;4.22;1.13;;;22.30;96.40;;;;;;4822377;29;20553;-77
2022/07/08 08:32:41;;;;;;;7.97;1.27;;;22.30;96.10;;;;;;4819589;29;20064;-77
2022/07/08 08:35:08;;;;;;;5.25;1.05;;;22.30;96.20;;;;;;4822567;29;20136;-77
2022/07/08 08:37:34;;;;;;;6.38;1.73;;;22.40;96.00;;;;;;4821994;29;20033;-79
2022/07/08 08:40:04;;;;;;;3.00;1.00;;;22.50;95.60;;;;;;4827805;29;20109;-79
2022/07/08 08:42:31;;;;;;;4.20;0.98;;;22.60;96.00;;;;;;4824299;29;20121;-80
2022/07/08 08:45:02;;;;;;;6.75;1.52;;;22.70;96.00;;;;;;4825072;29;20022;-79
2022/07/08 08:47:29;;;;;;;3.35;1.30;;;22.80;95.70;;;;;;4821460;29;20507;-79
2022/07/08 08:49:57;;;;;;;4.95;0.95;;;22.80;95.80;;;;;;4826565;29;20068;-80
2022/07/08 08:52:23;;;;;;;5.30;1.13;;;22.90;96.00;;;;;;4823770;29;20025;-80
2022/07/08 08:54:51;;;;;;;5.80;1.25;;;23.00;95.30;;;;;;4823873;29;20090;-79
2022/07/08 08:57:18;;;;;;;5.50;1.15;;;23.10;95.00;;;;;;4822927;29;20043;-79
2022/07/08 08:59:45;;;;;;;5.40;1.27;;;23.10;94.90;;;;;;4822050;29;20027;-80
2022/07/08 09:02:12;;;;;;;6.07;1.33;;;23.20;95.30;;;;;;4825901;29;20033;-78
2022/07/08 09:04:38;;;;;;;4.00;1.00;;;23.20;94.90;;;;;;4827222;29;20046;-77
2022/07/08 09:07:04;;;;;;;3.58;1.05;;;23.30;94.70;;;;;;4811813;29;20031;-77
2022/07/08 09:09:30;;;;;;;4.47;1.00;;;23.40;95.10;;;;;;4814585;29;20039;-77
2022/07/08 09:11:55;;;;;;;3.63;0.82;;;23.50;93.20;;;;;;4813581;29;20621;-77
2022/07/08 09:14:23;;;;;;;3.97;1.00;;;23.50;93.10;;;;;;4814224;29;20038;-77
2022/07/08 09:17:12;;;;;;;5.70;0.93;;;23.60;93.00;;;;;;4811047;29;20026;-77
2022/07/08 09:19:41;;;;;;;5.78;1.10;;;23.60;93.30;;;;;;4810505;29;20048;-77
2022/07/08 09:22:08;;;;;;;3.47;1.20;;;23.60;92.70;;;;;;4813887;29;20046;-78
2022/07/08 09:24:38;;;;;;;2.80;1.10;;;23.80;93.10;;;;;;4813435;29;20031;-79
2022/07/08 09:27:06;;;;;;;6.32;1.10;;;23.90;92.00;;;;;;4811676;29;20034;-77
2022/07/08 09:29:32;;;;;;;3.55;1.10;;;24.00;91.50;;;;;;4817818;29;20038;-77
2022/07/08 09:32:15;;;;;;;4.50;1.27;;;24.10;92.20;;;;;;4812322;29;20097;-76
2022/07/08 09:34:44;;;;;;;3.35;1.00;;;24.20;92.00;;;;;;4811488;29;20103;-76
2022/07/08 09:37:18;;;;;;;8.25;1.48;;;24.20;92.00;;;;;;4814521;29;20034;-76
2022/07/08 09:39:45;;;;;;;9.52;1.45;;;24.20;92.10;;;;;;4814640;29;20027;-78
2022/07/08 09:42:14;;;;;;;5.45;0.88;;;24.20;91.60;;;;;;4815458;29;20031;-79
2022/07/08 09:44:40;;;;;;;3.55;1.10;;;24.20;91.40;;;;;;4815346;29;20030;-80
2022/07/08 09:47:09;;;;;;;5.20;1.10;;;24.30;90.40;;;;;;4814112;29;20027;-80
2022/07/08 09:49:35;;;;;;;3.42;0.98;;;24.40;90.50;;;;;;4817405;29;20030;-79
2022/07/08 09:52:00;;;;;;;3.72;1.10;;;24.40;89.90;;;;;;4816184;29;20118;-80
2022/07/08 09:54:28;;;;;;;3.40;1.05;;;24.50;90.20;;;;;;4816112;29;20406;-80
2022/07/08 09:57:01;;;;;;;3.83;0.88;;;24.60;89.10;;;;;;4813678;29;20041;-80
2022/07/08 09:59:28;;;;;;;5.10;1.02;;;24.70;89.10;;;;;;4814466;29;20921;-80
2022/07/08 10:01:54;;;;;;;3.47;1.05;;;24.80;88.90;;;;;;4819722;29;20042;-80
2022/07/08 10:04:22;;;;;;;3.55;0.90;;;24.90;88.00;;;;;;4820089;29;20045;-80
2022/07/08 10:06:48;;;;;;;6.28;0.90;;;24.90;87.60;;;;;;4818656;29;20045;-79
2022/07/08 10:09:14;;;;;;;4.32;0.93;;;25.00;87.90;;;;;;4814319;29;20410;-82
2022/07/08 10:11:40;;;;;;;3.53;1.23;;;25.10;87.90;;;;;;4813496;29;20038;-82
2022/07/08 10:14:08;;;;;;;3.90;1.02;;;25.20;87.60;;;;;;4817981;29;20030;-82
2022/07/08 10:16:34;;;;;;;6.53;1.40;;;25.20;86.90;;;;;;4812707;29;20686;-82
2022/07/08 10:19:03;;;;;;;5.35;1.20;;;25.30;87.90;;;;;;4813778;29;20027;-82
2022/07/08 10:21:30;;;;;;;6.63;1.30;;;25.30;86.10;;;;;;4813003;29;20030;-81
2022/07/08 10:23:56;;;;;;;5.88;1.60;;;25.30;86.90;;;;;;4810652;29;20045;-81
2022/07/08 10:26:34;;;;;;;10.82;2.63;;;25.20;87.00;;;;;;4819750;29;20022;-80
2022/07/08 10:29:03;;;;;;;4.78;1.25;;;25.30;87.30;;;;;;4815634;29;20042;-81
2022/07/08 10:31:29;;;;;;;4.88;1.15;;;25.40;86.60;;;;;;4818514;29;20083;-81
2022/07/08 10:34:02;;;;;;;9.50;1.77;;;25.40;84.30;;;;;;4816380;29;20487;-80
2022/07/08 10:36:28;;;;;;;8.80;2.50;;;25.50;86.00;;;;;;4813778;29;20026;-84
2022/07/08 10:39:04;;;;;;;8.13;1.27;;;25.60;85.20;;;;;;4815839;29;20438;-81
2022/07/08 10:41:30;;;;;;;5.40;1.65;;;25.80;84.60;;;;;;4816218;29;20481;-80
2022/07/08 10:44:02;;;;;;;5.32;1.48;;;25.90;84.20;;;;;;4814719;29;20046;-80
2022/07/08 10:46:28;;;;;;;9.48;1.90;;;26.00;81.00;;;;;;4814778;29;20030;-80
2022/07/08 10:48:54;;;;;;;12.13;1.80;;;26.10;82.30;;;;;;4815589;29;20384;-81
2022/07/08 10:51:20;;;;;;;6.65;1.10;;;26.20;81.90;;;;;;4817825;29;20022;-80
2022/07/08 10:53:56;;;;;;;3.33;0.90;;;26.40;79.20;;;;;;4815252;29;20121;-80
2022/07/08 10:56:48;;;;;;;3.60;1.20;;;26.40;78.80;;;;;;4814199;29;20022;-80
2022/07/08 10:59:17;;;;;;;4.57;1.30;;;26.40;79.00;;;;;;4815002;29;20054;-80
2022/07/08 11:01:50;;;;;;;9.68;1.52;;;26.60;81.90;;;;;;4814751;29;20410;-80
2022/07/08 11:04:45;;;;;;;4.75;1.40;;;26.60;79.60;;;;;;4814346;29;20308;-80
2022/07/08 11:07:28;;;;;;;10.35;1.75;;;26.70;78.40;;;;;;4815942;29;20125;-80
2022/07/08 11:10:11;;;;;;;4.55;0.90;;;26.70;78.60;;;;;;4814885;29;20028;-80
2022/07/08 11:12:45;;;;;;;3.78;1.10;;;26.90;79.10;;;;;;4816549;29;20397;-80
2022/07/08 11:15:14;;;;;;;3.92;1.10;;;27.00;77.60;;;;;;4810165;29;20491;-81
2022/07/08 11:17:41;;;;;;;6.60;1.50;;;27.00;78.30;;;;;;4816798;29;20484;-80
2022/07/08 11:20:13;;;;;;;5.65;1.10;;;27.10;77.30;;;;;;4822382;29;20022;-80
2022/07/08 11:22:40;;;;;;;4.05;0.90;;;27.20;78.70;;;;;;4812808;29;20047;-80
2022/07/08 11:25:11;;;;;;;3.50;0.75;;;27.10;78.20;;;;;;4819044;29;20033;-80
2022/07/08 11:27:37;;;;;;;4.07;0.95;;;27.20;75.90;;;;;;4816177;29;20022;-77
2022/07/08 11:30:08;;;;;;;4.93;0.70;;;27.40;74.70;;;;;;4816862;29;20069;-77
2022/07/08 11:32:34;;;;;;;5.35;1.00;;;27.60;75.60;;;;;;4816361;29;20548;-78
2022/07/08 11:35:00;;;;;;;6.45;1.10;;;27.80;75.40;;;;;;4813845;29;20046;-78
2022/07/08 11:37:25;;;;;;;4.20;0.95;;;27.90;76.10;;;;;;4817952;29;20101;-78
2022/07/08 11:39:51;;;;;;;4.65;0.90;;;28.00;74.00;;;;;;4825776;29;20023;-78
2022/07/08 11:42:17;;;;;;;6.18;0.98;;;28.00;73.70;;;;;;4825010;29;20496;-78
2022/07/08 11:44:44;;;;;;;4.18;1.00;;;28.10;74.90;;;;;;4823121;29;20033;-78
2022/07/08 11:47:15;;;;;;;6.35;1.08;;;28.30;72.30;;;;;;4821924;29;20109;-77
2022/07/08 11:49:45;;;;;;;4.05;1.05;;;28.40;72.80;;;;;;4831404;29;20026;-76
2022/07/08 11:52:11;;;;;;;4.63;0.90;;;28.50;71.40;;;;;;4828445;29;20054;-76
2022/07/08 11:54:37;;;;;;;4.43;0.93;;;28.60;70.40;;;;;;4828441;29;20047;-75
2022/07/08 11:57:04;;;;;;;2.72;0.80;;;28.80;69.80;;;;;;4828319;29;20463;-76
2022/07/08 11:59:31;;;;;;;4.07;0.70;;;28.90;69.90;;;;;;4826379;29;20058;-76
2022/07/08 12:02:00;;;;;;;6.15;1.10;;;28.90;69.70;;;;;;4826850;29;20491;-76
2022/07/08 12:04:26;;;;;;;4.78;0.90;;;29.00;70.80;;;;;;4824799;29;20051;-76
2022/07/08 12:06:57;;;;;;;4.93;1.15;;;29.10;70.20;;;;;;4826948;29;20068;-76
2022/07/08 12:09:24;;;;;;;3.88;0.90;;;29.30;70.00;;;;;;4823949;29;20062;-76
2022/07/08 12:11:52;;;;;;;3.63;0.82;;;29.50;68.80;;;;;;4826005;29;20028;-76
2022/07/08 12:14:19;;;;;;;5.07;0.80;;;29.80;69.00;;;;;;4824211;29;20026;-76
2022/07/08 12:16:47;;;;;;;5.57;0.88;;;29.90;66.70;;;;;;4827206;29;20038;-77
2022/07/08 12:19:37;;;;;;;4.90;0.93;;;29.90;68.20;;;;;;4827902;29;20102;-76
2022/07/08 12:22:06;;;;;;;6.05;0.93;;;30.00;66.40;;;;;;4820660;29;20064;-76
2022/07/08 12:24:39;;;;;;;4.15;0.90;;;30.10;66.30;;;;;;4818575;29;20515;-76
2022/07/08 12:27:16;;;;;;;3.03;0.68;;;30.20;67.40;;;;;;4824878;29;20393;-76
2022/07/08 12:29:43;;;;;;;9.55;0.90;;;30.30;67.90;;;;;;4826293;29;20083;-76
2022/07/08 12:32:10;;;;;;;3.53;0.80;;;30.30;66.90;;;;;;4828900;29;20116;-76
2022/07/08 12:34:36;;;;;;;3.55;1.02;;;30.40;66.80;;;;;;4824602;29;20034;-76
2022/07/08 12:37:17;;;;;;;4.53;0.95;;;30.50;65.40;;;;;;4826250;29;20411;-75
2022/07/08 12:39:43;;;;;;;3.83;1.10;;;30.80;64.30;;;;;;4820431;29;20110;-76
2022/07/08 12:42:09;;;;;;;7.53;1.08;;;30.90;64.60;;;;;;4821320;29;20046;-76
2022/07/08 12:44:41;;;;;;;7.57;1.10;;;31.20;63.60;;;;;;4820961;29;20103;-76
2022/07/08 12:47:11;;;;;;;4.88;1.30;;;31.20;64.10;;;;;;4819960;29;20026;-76